createdAt,value
2017-12-06T00:00:13.701Z,5.90
2017-12-06T00:02:41.159Z,5.94
2017-12-06T00:05:08.634Z,5.89
2017-12-06T00:07:36.083Z,5.82
2017-12-06T00:10:03.550Z,5.89
2017-12-06T00:12:36.524Z,5.89
2017-12-06T00:15:09.605Z,5.89
2017-12-06T00:17:37.054Z,5.91
2017-12-06T00:20:04.517Z,5.97
2017-12-06T00:22:31.969Z,6.00
2017-12-06T00:24:59.438Z,6.00
2017-12-06T00:27:26.898Z,6.03
2017-12-06T00:29:54.368Z,6.05
2017-12-06T00:32:21.822Z,6.11
2017-12-06T00:34:49.295Z,5.98
2017-12-06T00:37:16.738Z,5.98
2017-12-06T00:39:44.222Z,6.01
2017-12-06T00:42:11.683Z,5.96
2017-12-06T00:44:39.139Z,5.99
2017-12-06T00:47:06.624Z,5.97
2017-12-06T00:49:34.127Z,5.98
2017-12-06T00:52:01.622Z,5.93
2017-12-06T00:54:29.062Z,5.90
2017-12-06T00:56:56.536Z,5.92
2017-12-06T00:59:23.978Z,5.85
2017-12-06T01:01:51.456Z,5.82
2017-12-06T01:04:18.902Z,5.86
2017-12-06T01:06:46.366Z,5.81
2017-12-06T01:09:13.819Z,5.88
2017-12-06T01:11:41.316Z,5.86
2017-12-06T01:14:08.760Z,5.85
2017-12-06T01:16:36.205Z,5.78
2017-12-06T01:19:03.668Z,5.72
2017-12-06T01:21:31.120Z,5.71
2017-12-06T01:23:58.591Z,5.65
2017-12-06T01:26:26.029Z,5.69
2017-12-06T01:28:53.507Z,5.61
2017-12-06T01:31:20.946Z,5.59
2017-12-06T01:33:48.427Z,5.56
2017-12-06T01:36:15.884Z,5.60
2017-12-06T01:38:43.355Z,5.56
2017-12-06T01:41:10.790Z,5.57
2017-12-06T01:43:38.268Z,5.48
2017-12-06T01:46:05.729Z,5.60
2017-12-06T01:48:33.212Z,5.64
2017-12-06T01:51:00.677Z,5.67
2017-12-06T01:53:28.161Z,5.60
2017-12-06T01:55:55.615Z,5.52
2017-12-06T01:58:23.081Z,5.55
2017-12-06T02:00:50.568Z,5.56
2017-12-06T02:03:18.036Z,5.52
2017-12-06T02:05:45.534Z,5.52
2017-12-06T02:08:13.001Z,5.50
2017-12-06T02:10:40.501Z,5.53
2017-12-06T02:13:07.964Z,5.59
2017-12-06T02:15:35.461Z,5.67
2017-12-06T02:18:02.930Z,5.69
2017-12-06T02:20:30.408Z,5.75
2017-12-06T02:22:57.860Z,5.77
2017-12-06T02:25:25.340Z,5.82
2017-12-06T02:27:52.799Z,5.90
2017-12-06T02:30:20.281Z,5.86
2017-12-06T02:32:47.746Z,5.97
2017-12-06T02:35:15.234Z,5.88
2017-12-06T02:37:42.725Z,5.91
2017-12-06T02:40:22.113Z,5.96
2017-12-06T02:43:01.470Z,5.93
2017-12-06T02:45:28.956Z,6.03
2017-12-06T02:47:56.444Z,5.96
2017-12-06T02:50:25.881Z,5.98
2017-12-06T02:52:53.340Z,6.01
2017-12-06T02:55:20.815Z,6.02
2017-12-06T02:57:48.295Z,5.97
2017-12-06T03:00:15.751Z,6.09
2017-12-06T03:02:43.233Z,6.13
2017-12-06T03:05:10.693Z,6.18
2017-12-06T03:07:38.187Z,6.12
2017-12-06T03:10:05.656Z,6.31
2017-12-06T03:12:33.145Z,6.10
2017-12-06T03:15:00.632Z,6.08
2017-12-06T03:17:28.112Z,6.16
2017-12-06T03:19:55.585Z,6.11
2017-12-06T03:22:23.081Z,6.12
2017-12-06T03:24:50.545Z,6.16
2017-12-06T03:27:18.029Z,6.11
2017-12-06T03:29:45.519Z,6.14
2017-12-06T03:32:12.997Z,6.13
2017-12-06T03:34:40.451Z,6.10
2017-12-06T03:37:07.917Z,6.17
2017-12-06T03:39:35.409Z,6.19
2017-12-06T03:42:02.877Z,6.28
2017-12-06T03:44:30.364Z,6.23
2017-12-06T03:46:57.833Z,6.30
2017-12-06T03:49:25.319Z,6.22
2017-12-06T03:51:52.782Z,6.24
2017-12-06T03:54:20.265Z,6.27
2017-12-06T03:56:47.732Z,6.13
2017-12-06T03:59:15.221Z,6.09
2017-12-06T04:01:42.773Z,6.10
2017-12-06T04:04:10.269Z,6.16
2017-12-06T04:06:37.743Z,6.11
2017-12-06T04:09:05.252Z,6.23
2017-12-06T04:11:32.716Z,6.20
2017-12-06T04:14:00.172Z,6.12
2017-12-06T04:16:27.662Z,6.10
2017-12-06T04:18:55.125Z,6.14
2017-12-06T04:21:22.610Z,6.21
2017-12-06T04:23:50.079Z,6.14
2017-12-06T04:26:17.568Z,6.15
2017-12-06T04:28:45.030Z,6.12
2017-12-06T04:31:12.513Z,6.16
2017-12-06T04:33:39.968Z,6.34
2017-12-06T04:36:07.453Z,6.21
2017-12-06T04:38:34.928Z,6.13
2017-12-06T04:41:02.427Z,6.17
2017-12-06T04:43:29.940Z,6.08
2017-12-06T04:45:57.438Z,6.11
2017-12-06T04:48:24.910Z,6.05
2017-12-06T04:50:52.391Z,6.15
2017-12-06T04:53:19.858Z,6.13
2017-12-06T04:55:47.316Z,6.15
2017-12-06T04:58:14.796Z,6.18
2017-12-06T05:00:42.256Z,6.22
2017-12-06T05:03:09.744Z,6.18
2017-12-06T05:05:37.221Z,6.23
2017-12-06T05:08:04.763Z,6.25
2017-12-06T05:10:32.228Z,6.22
2017-12-06T05:12:59.709Z,6.30
2017-12-06T05:15:28.042Z,6.15
2017-12-06T05:17:55.525Z,6.28
2017-12-06T05:20:22.989Z,6.18
2017-12-06T05:22:50.481Z,6.32
2017-12-06T05:25:17.932Z,6.21
2017-12-06T05:27:45.421Z,6.14
2017-12-06T05:30:12.879Z,6.16
2017-12-06T05:32:40.364Z,6.16
2017-12-06T05:35:07.833Z,6.22
2017-12-06T05:37:35.296Z,6.22
2017-12-06T05:40:02.785Z,6.20
2017-12-06T05:42:30.245Z,6.14
2017-12-06T05:44:57.738Z,6.20
2017-12-06T05:47:25.201Z,6.26
2017-12-06T05:49:52.684Z,6.41
2017-12-06T05:52:20.147Z,6.39
2017-12-06T05:54:47.645Z,6.25
2017-12-06T05:57:15.143Z,6.08
2017-12-06T05:59:42.636Z,6.09
2017-12-06T06:02:10.111Z,6.04
2017-12-06T06:04:37.592Z,6.15
2017-12-06T06:07:05.049Z,6.14
2017-12-06T06:09:32.541Z,6.10
2017-12-06T06:11:59.991Z,6.19
2017-12-06T06:14:27.440Z,6.26
2017-12-06T06:16:54.927Z,6.20
2017-12-06T06:19:22.389Z,6.22
2017-12-06T06:21:49.884Z,6.20
2017-12-06T06:24:17.345Z,6.23
2017-12-06T06:26:44.829Z,6.27
2017-12-06T06:29:12.305Z,6.26
2017-12-06T06:31:39.788Z,6.28
2017-12-06T06:34:07.247Z,6.36
2017-12-06T06:36:34.736Z,6.23
2017-12-06T06:39:02.244Z,6.33
2017-12-06T06:41:29.723Z,6.32
2017-12-06T06:43:57.261Z,6.55
2017-12-06T06:46:24.749Z,6.26
2017-12-06T06:48:52.217Z,6.47
2017-12-06T06:51:19.711Z,6.32
2017-12-06T06:53:47.199Z,6.31
2017-12-06T06:56:14.660Z,6.47
2017-12-06T06:58:42.142Z,6.42
2017-12-06T07:01:09.660Z,6.68
2017-12-06T07:03:37.142Z,6.48
2017-12-06T07:06:04.605Z,6.37
2017-12-06T07:08:32.085Z,6.41
2017-12-06T07:11:00.040Z,6.41
2017-12-06T07:13:27.560Z,6.43
2017-12-06T07:15:55.021Z,6.38
2017-12-06T07:18:26.312Z,6.43
2017-12-06T07:20:53.776Z,6.38
2017-12-06T07:23:21.277Z,6.41
2017-12-06T07:25:48.742Z,6.49
2017-12-06T07:28:16.252Z,6.47
2017-12-06T07:30:43.712Z,6.50
2017-12-06T07:33:11.209Z,6.53
2017-12-06T07:35:38.689Z,6.49
2017-12-06T07:38:06.178Z,6.45
2017-12-06T07:40:33.638Z,6.46
2017-12-06T07:43:01.127Z,6.62
2017-12-06T07:45:28.596Z,6.45
2017-12-06T07:47:56.069Z,6.48
2017-12-06T07:50:23.576Z,6.60
2017-12-06T07:52:51.048Z,6.60
2017-12-06T07:55:18.528Z,6.64
2017-12-06T07:57:46.000Z,6.65
2017-12-06T08:00:13.485Z,6.66
2017-12-06T08:02:40.956Z,6.62
2017-12-06T08:05:08.447Z,6.62
2017-12-06T08:07:35.917Z,6.63
2017-12-06T08:10:03.641Z,6.63
2017-12-06T08:12:31.102Z,6.70
2017-12-06T08:14:58.609Z,6.82
2017-12-06T08:17:26.064Z,6.74
2017-12-06T08:19:53.548Z,6.73
2017-12-06T08:22:21.013Z,6.67
2017-12-06T08:24:48.508Z,6.67
2017-12-06T08:27:15.969Z,6.88
2017-12-06T08:29:43.425Z,7.01
2017-12-06T08:32:10.952Z,6.89
2017-12-06T08:34:38.422Z,7.09
2017-12-06T08:37:05.900Z,7.03
2017-12-06T08:39:33.365Z,7.01
2017-12-06T08:42:00.858Z,6.94
2017-12-06T08:44:28.355Z,6.96
2017-12-06T08:46:55.871Z,7.06
2017-12-06T08:49:23.336Z,6.95
2017-12-06T08:51:50.820Z,7.00
2017-12-06T08:54:23.813Z,7.03
2017-12-06T08:56:51.297Z,6.92
2017-12-06T08:59:18.757Z,6.93
2017-12-06T09:01:46.293Z,7.04
2017-12-06T09:04:13.748Z,7.09
2017-12-06T09:06:41.290Z,7.05
2017-12-06T09:09:08.734Z,7.08
2017-12-06T09:11:36.220Z,7.03
2017-12-06T09:14:03.689Z,6.98
2017-12-06T09:16:31.192Z,6.88
2017-12-06T09:18:58.657Z,7.01
2017-12-06T09:21:26.122Z,7.04
2017-12-06T09:23:53.605Z,7.05
2017-12-06T09:26:21.069Z,6.99
2017-12-06T09:28:48.553Z,6.93
2017-12-06T09:31:16.016Z,7.00
2017-12-06T09:33:43.513Z,7.05
2017-12-06T09:36:10.985Z,6.97
2017-12-06T09:38:38.473Z,7.09
2017-12-06T09:41:05.937Z,7.04
2017-12-06T09:43:33.429Z,7.00
2017-12-06T09:46:00.946Z,7.04
2017-12-06T09:48:28.433Z,7.03
2017-12-06T09:50:55.897Z,7.06
2017-12-06T09:53:23.364Z,7.12
2017-12-06T09:55:50.843Z,7.30
2017-12-06T09:58:18.305Z,7.18
2017-12-06T10:00:45.788Z,7.48
2017-12-06T10:03:13.359Z,7.26
2017-12-06T10:05:41.093Z,7.20
2017-12-06T10:08:08.564Z,7.24
2017-12-06T10:10:36.050Z,7.27
2017-12-06T10:13:03.499Z,7.42
2017-12-06T10:15:30.985Z,7.49
2017-12-06T10:17:58.450Z,7.30
2017-12-06T10:20:25.941Z,7.37
2017-12-06T10:22:53.611Z,7.39
2017-12-06T10:25:21.325Z,7.29
2017-12-06T10:27:48.952Z,7.44
2017-12-06T10:30:16.531Z,7.44
2017-12-06T10:32:44.058Z,7.44
2017-12-06T10:35:11.525Z,7.47
2017-12-06T10:37:39.040Z,7.43
2017-12-06T10:40:06.500Z,7.54
2017-12-06T10:42:33.985Z,7.65
2017-12-06T10:45:01.440Z,7.85
2017-12-06T10:47:28.924Z,7.71
2017-12-06T10:49:56.401Z,7.56
2017-12-06T10:52:23.990Z,7.66
2017-12-06T10:54:51.550Z,7.79
2017-12-06T10:57:19.181Z,7.74
2017-12-06T10:59:46.752Z,7.83
2017-12-06T11:02:14.708Z,7.89
2017-12-06T11:04:42.325Z,7.72
2017-12-06T11:07:09.979Z,7.68
2017-12-06T11:09:37.601Z,7.71
2017-12-06T11:12:05.104Z,7.62
2017-12-06T11:14:32.588Z,7.59
2017-12-06T11:17:00.058Z,7.66
2017-12-06T11:19:27.563Z,7.74
2017-12-06T11:21:55.027Z,7.78
2017-12-06T11:24:22.513Z,7.81
2017-12-06T11:26:49.971Z,7.89
2017-12-06T11:29:17.471Z,8.11
2017-12-06T11:31:45.004Z,8.16
2017-12-06T11:34:13.352Z,8.16
2017-12-06T11:36:41.482Z,8.41
2017-12-06T11:39:09.487Z,8.31
2017-12-06T11:41:38.171Z,8.33
2017-12-06T11:44:05.645Z,8.16
2017-12-06T11:46:33.121Z,8.25
2017-12-06T11:49:00.575Z,8.40
2017-12-06T11:51:28.057Z,8.28
2017-12-06T11:53:55.531Z,8.17
2017-12-06T11:56:23.011Z,8.16
2017-12-06T11:58:50.477Z,8.31
2017-12-06T12:01:17.975Z,8.46
2017-12-06T12:03:45.431Z,8.26
2017-12-06T12:06:15.929Z,8.26
2017-12-06T12:08:43.397Z,8.31
2017-12-06T12:11:10.876Z,8.33
2017-12-06T12:13:38.336Z,8.31
2017-12-06T12:16:05.800Z,8.26
2017-12-06T12:18:33.282Z,8.17
2017-12-06T12:21:00.753Z,8.17
2017-12-06T12:23:28.238Z,8.13
2017-12-06T12:25:55.702Z,8.19
2017-12-06T12:28:23.276Z,8.18
2017-12-06T12:30:50.733Z,8.25
2017-12-06T12:33:18.228Z,8.31
2017-12-06T12:35:45.833Z,8.37
2017-12-06T12:38:13.317Z,8.22
2017-12-06T12:40:40.869Z,8.31
2017-12-06T12:43:08.352Z,8.23
2017-12-06T12:45:35.902Z,8.19
2017-12-06T12:48:03.453Z,8.33
2017-12-06T12:50:30.917Z,8.30
2017-12-06T12:52:58.381Z,8.42
2017-12-06T12:55:25.858Z,8.22
2017-12-06T13:00:27.166Z,8.14
2017-12-06T13:02:54.626Z,8.23
2017-12-06T13:05:22.193Z,8.28
2017-12-06T13:07:49.653Z,8.20
2017-12-06T13:10:17.159Z,8.26
2017-12-06T13:12:44.621Z,8.29
2017-12-06T13:15:12.080Z,8.24
2017-12-06T13:17:39.558Z,8.18
2017-12-06T13:20:07.044Z,8.26
2017-12-06T13:22:34.536Z,8.20
2017-12-06T13:25:01.995Z,8.26
2017-12-06T13:27:40.444Z,8.19
2017-12-06T13:30:07.987Z,8.26
2017-12-06T13:32:35.544Z,8.23
2017-12-06T13:35:03.035Z,8.25
2017-12-06T13:37:31.373Z,8.31
2017-12-06T13:39:58.866Z,8.22
2017-12-06T13:42:26.334Z,8.29
2017-12-06T13:44:53.824Z,8.33
2017-12-06T13:47:21.285Z,8.33
2017-12-06T13:49:48.805Z,8.27
2017-12-06T13:52:16.273Z,8.35
2017-12-06T13:54:43.757Z,8.21
2017-12-06T13:57:11.693Z,8.31
2017-12-06T13:59:39.798Z,8.16
2017-12-06T14:02:08.442Z,8.27
2017-12-06T14:04:36.895Z,8.23
2017-12-06T14:07:04.550Z,8.20
2017-12-06T14:09:33.052Z,8.13
2017-12-06T14:12:00.524Z,8.13
2017-12-06T14:14:28.033Z,8.16
2017-12-06T14:16:55.513Z,8.08
2017-12-06T14:19:22.977Z,8.15
2017-12-06T14:21:50.460Z,8.17
2017-12-06T14:24:17.912Z,8.15
2017-12-06T14:26:45.393Z,8.11
2017-12-06T14:29:12.859Z,8.08
2017-12-06T14:31:40.345Z,8.13
2017-12-06T14:34:07.809Z,8.21
2017-12-06T14:36:35.297Z,8.22
2017-12-06T14:39:02.744Z,8.16
2017-12-06T14:41:30.224Z,8.20
2017-12-06T14:43:57.689Z,8.18
2017-12-06T14:46:25.172Z,8.18
2017-12-06T14:48:52.636Z,8.32
2017-12-06T14:51:20.121Z,8.23
2017-12-06T14:53:48.123Z,8.23
2017-12-06T14:56:15.609Z,8.25
2017-12-06T14:58:43.098Z,8.18
2017-12-06T15:01:10.580Z,8.15
2017-12-06T15:03:38.044Z,8.04
2017-12-06T15:06:05.545Z,8.04
2017-12-06T15:08:33.021Z,8.24
2017-12-06T15:11:00.487Z,8.03
2017-12-06T15:13:28.053Z,7.93
2017-12-06T15:15:55.520Z,7.89
2017-12-06T15:18:23.001Z,7.93
2017-12-06T15:20:50.473Z,7.79
2017-12-06T15:23:17.971Z,7.84
2017-12-06T15:25:45.541Z,7.94
2017-12-06T15:28:13.033Z,7.87
2017-12-06T15:30:41.799Z,7.86
2017-12-06T15:33:09.293Z,7.80
2017-12-06T15:35:36.755Z,7.79
2017-12-06T15:38:04.245Z,7.77
2017-12-06T15:40:31.724Z,7.67
2017-12-06T15:42:59.228Z,7.64
2017-12-06T15:45:26.689Z,7.66
2017-12-06T15:47:54.824Z,7.67
2017-12-06T15:50:22.317Z,7.57
2017-12-06T15:52:49.790Z,7.51
2017-12-06T15:55:17.300Z,7.53
2017-12-06T15:57:44.771Z,7.77
2017-12-06T16:00:12.269Z,7.71
2017-12-06T16:02:39.724Z,7.54
2017-12-06T16:05:07.243Z,7.51
2017-12-06T16:07:34.704Z,7.55
2017-12-06T16:10:02.201Z,7.57
2017-12-06T16:12:29.660Z,7.56
2017-12-06T16:14:57.161Z,7.62
2017-12-06T16:17:24.697Z,7.48
2017-12-06T16:19:52.221Z,7.53
2017-12-06T16:22:19.680Z,7.51
2017-12-06T16:24:47.146Z,7.48
2017-12-06T16:27:14.632Z,7.51
2017-12-06T16:29:42.092Z,7.41
2017-12-06T16:32:09.580Z,7.53
2017-12-06T16:34:37.097Z,7.40
2017-12-06T16:37:16.620Z,7.48
2017-12-06T16:39:44.185Z,7.50
2017-12-06T16:42:11.664Z,7.37
2017-12-06T16:44:39.133Z,7.62
2017-12-06T16:47:06.621Z,7.41
2017-12-06T16:49:34.076Z,7.46
2017-12-06T16:52:01.559Z,7.31
2017-12-06T16:54:29.015Z,7.72
2017-12-06T16:56:56.529Z,7.47
2017-12-06T16:59:23.988Z,7.59
2017-12-06T17:01:51.456Z,7.40
2017-12-06T17:04:18.944Z,7.45
2017-12-06T17:06:46.409Z,7.43
2017-12-06T17:09:13.892Z,7.44
2017-12-06T17:11:41.361Z,7.31
2017-12-06T17:14:08.840Z,7.31
2017-12-06T17:16:36.305Z,7.26
2017-12-06T17:19:03.794Z,7.19
2017-12-06T17:21:31.262Z,7.27
2017-12-06T17:23:58.771Z,7.24
2017-12-06T17:26:26.449Z,7.32
2017-12-06T17:29:05.707Z,7.51
2017-12-06T17:31:47.068Z,7.31
2017-12-06T17:34:14.581Z,7.30
2017-12-06T17:39:19.750Z,7.26
2017-12-06T17:41:47.238Z,7.11
2017-12-06T17:44:14.699Z,6.86
2017-12-06T17:46:42.185Z,7.05
2017-12-06T17:49:09.724Z,6.75
2017-12-06T17:51:37.187Z,6.63
2017-12-06T17:54:04.748Z,6.69
2017-12-06T17:56:32.232Z,6.84
2017-12-06T17:58:59.765Z,6.80
2017-12-06T18:01:27.222Z,6.74
2017-12-06T18:03:54.681Z,6.58
2017-12-06T18:06:22.152Z,6.72
2017-12-06T18:08:49.641Z,6.66
2017-12-06T18:11:17.104Z,6.82
2017-12-06T18:13:44.593Z,6.80
2017-12-06T18:16:12.052Z,6.94
2017-12-06T18:18:39.581Z,6.95
2017-12-06T18:21:07.036Z,6.91
2017-12-06T18:23:34.522Z,6.75
2017-12-06T18:26:01.985Z,7.10
2017-12-06T18:28:29.468Z,6.95
2017-12-06T18:30:56.940Z,6.96
2017-12-06T18:33:24.442Z,6.88
2017-12-06T18:35:52.020Z,6.86
2017-12-06T18:38:19.489Z,6.79
2017-12-06T18:40:46.980Z,6.81
2017-12-06T18:43:14.441Z,6.79
2017-12-06T18:45:41.924Z,6.84
2017-12-06T18:48:09.393Z,6.91
2017-12-06T18:50:36.872Z,6.98
2017-12-06T18:53:04.417Z,6.99
2017-12-06T18:55:31.897Z,6.99
2017-12-06T18:57:59.440Z,7.09
2017-12-06T19:00:26.937Z,6.93
2017-12-06T19:02:54.405Z,7.02
2017-12-06T19:05:21.893Z,6.90
2017-12-06T19:07:49.361Z,6.72
2017-12-06T19:10:16.962Z,6.58
2017-12-06T19:12:44.392Z,6.64
2017-12-06T19:15:11.880Z,6.69
2017-12-06T19:17:39.350Z,6.54
2017-12-06T19:20:06.817Z,6.72
2017-12-06T19:22:34.297Z,6.80
2017-12-06T19:25:01.772Z,6.80
2017-12-06T19:27:29.277Z,6.89
2017-12-06T19:29:56.768Z,6.84
2017-12-06T19:32:24.256Z,6.66
2017-12-06T19:34:51.716Z,6.69
2017-12-06T19:37:19.205Z,6.75
2017-12-06T19:39:46.677Z,6.67
2017-12-06T19:42:14.166Z,6.62
2017-12-06T19:44:41.637Z,6.49
2017-12-06T19:47:09.122Z,6.39
2017-12-06T19:49:36.589Z,6.20
2017-12-06T19:52:04.095Z,6.16
2017-12-06T19:54:31.585Z,6.21
2017-12-06T19:56:59.089Z,6.34
2017-12-06T19:59:26.584Z,6.54
2017-12-06T20:01:54.049Z,6.20
2017-12-06T20:04:21.594Z,6.15
2017-12-06T20:06:49.055Z,6.14
2017-12-06T20:09:16.540Z,6.24
2017-12-06T20:11:44.001Z,6.27
2017-12-06T20:14:11.489Z,6.29
2017-12-06T20:16:38.948Z,6.11
2017-12-06T20:19:06.433Z,5.98
2017-12-06T20:21:33.906Z,6.10
2017-12-06T20:24:01.437Z,6.13
2017-12-06T20:26:28.953Z,6.29
2017-12-06T20:28:56.417Z,5.98
2017-12-06T20:31:23.905Z,5.89
2017-12-06T20:33:51.409Z,5.83
2017-12-06T20:36:18.895Z,5.87
2017-12-06T20:38:46.357Z,5.93
2017-12-06T20:41:13.840Z,5.87
2017-12-06T20:43:41.300Z,6.11
2017-12-06T20:46:08.776Z,6.09
2017-12-06T20:48:36.312Z,6.09
2017-12-06T20:51:03.795Z,6.21
2017-12-06T20:53:31.260Z,6.28
2017-12-06T20:55:58.745Z,6.29
2017-12-06T20:58:26.237Z,6.49
2017-12-06T21:00:53.740Z,6.44
2017-12-06T21:03:21.253Z,6.45
2017-12-06T21:05:48.756Z,6.32
2017-12-06T21:08:16.272Z,6.41
2017-12-06T21:10:43.736Z,6.37
2017-12-06T21:13:11.245Z,6.40
2017-12-06T21:15:38.767Z,6.42
2017-12-06T21:18:06.252Z,6.61
2017-12-06T21:20:33.737Z,6.61
2017-12-06T21:23:01.227Z,6.52
2017-12-06T21:25:28.688Z,6.45
2017-12-06T21:27:56.174Z,6.47
2017-12-06T21:30:23.633Z,6.50
2017-12-06T21:32:51.203Z,6.45
2017-12-06T21:35:18.635Z,6.36
2017-12-06T21:37:46.089Z,6.38
2017-12-06T21:40:13.600Z,6.39
2017-12-06T21:42:41.065Z,6.69
2017-12-06T21:45:08.545Z,6.40
2017-12-06T21:47:35.996Z,6.40
2017-12-06T21:50:03.481Z,6.31
2017-12-06T21:52:30.948Z,6.40
2017-12-06T21:54:58.429Z,6.67
2017-12-06T21:57:25.884Z,6.64
2017-12-06T21:59:53.415Z,6.67
2017-12-06T22:02:20.893Z,6.68
2017-12-06T22:05:00.354Z,6.60
2017-12-06T22:07:27.807Z,6.74
2017-12-06T22:09:55.345Z,6.64
2017-12-06T22:12:22.857Z,6.63
2017-12-06T22:14:50.318Z,6.59
2017-12-06T22:17:17.801Z,6.55
2017-12-06T22:19:45.281Z,6.52
2017-12-06T22:22:12.765Z,6.47
2017-12-06T22:24:40.316Z,6.46
2017-12-06T22:27:07.801Z,6.50
2017-12-06T22:29:35.256Z,6.38
2017-12-06T22:32:02.745Z,6.26
2017-12-06T22:34:30.213Z,6.35
2017-12-06T22:36:57.748Z,6.34
2017-12-06T22:39:26.135Z,6.42
2017-12-06T22:41:53.641Z,6.43
2017-12-06T22:44:21.117Z,6.39
2017-12-06T22:46:48.595Z,6.45
2017-12-06T22:49:16.056Z,6.50
2017-12-06T22:51:43.540Z,6.52
2017-12-06T22:54:11.001Z,6.49
2017-12-06T22:56:38.500Z,6.40
2017-12-06T22:59:05.964Z,6.31
2017-12-06T23:01:33.431Z,6.27
2017-12-06T23:04:00.912Z,6.24
2017-12-06T23:06:28.382Z,6.30
2017-12-06T23:08:55.869Z,6.32
2017-12-06T23:11:23.332Z,6.35
2017-12-06T23:13:50.815Z,6.23
2017-12-06T23:16:18.268Z,6.32
2017-12-06T23:18:45.748Z,6.29
2017-12-06T23:21:13.208Z,6.23
2017-12-06T23:23:40.694Z,6.34
2017-12-06T23:26:08.160Z,6.23
2017-12-06T23:28:35.648Z,6.23
2017-12-06T23:31:03.108Z,6.32
2017-12-06T23:33:30.589Z,6.43
2017-12-06T23:35:58.056Z,6.30
2017-12-06T23:38:25.549Z,6.16
2017-12-06T23:40:53.015Z,6.16
2017-12-06T23:43:20.881Z,6.23
2017-12-06T23:45:48.341Z,6.19
2017-12-06T23:48:15.828Z,6.15
2017-12-06T23:50:43.316Z,6.14
2017-12-06T23:53:10.777Z,6.19
2017-12-06T23:55:38.266Z,6.16
2017-12-06T23:58:05.733Z,6.13
